sensor_id;sensor_type;location;lat;lon;timestamp;temperature;humidity
2030;DHT22;1020;48.854;8.830;2022-07-25T00:01:50;20.70;1.00
2030;DHT22;1020;48.854;8.830;2022-07-25T00:04:17;20.70;1.00
2030;DHT22;1020;48.854;8.830;2022-07-25T00:06:44;20.70;1.00
2030;DHT22;1020;48.854;8.830;2022-07-25T00:09:11;20.60;1.00
2030;DHT22;1020;48.854;8.830;2022-07-25T00:11:39;20.50;1.00
2030;DHT22;1020;48.854;8.830;2022-07-25T00:14:06;20.40;1.00
2030;DHT22;1020;48.854;8.830;2022-07-25T00:16:33;20.40;1.00
2030;DHT22;1020;48.854;8.830;2022-07-25T00:19:00;20.30;1.00
2030;DHT22;1020;48.854;8.830;2022-07-25T00:21:26;20.30;1.00
2030;DHT22;1020;48.854;8.830;2022-07-25T00:23:53;20.30;1.00
2030;DHT22;1020;48.854;8.830;2022-07-25T00:26:20;20.30;1.00
2030;DHT22;1020;48.854;8.830;2022-07-25T00:28:48;20.40;1.00
2030;DHT22;1020;48.854;8.830;2022-07-25T00:31:15;20.50;1.00
2030;DHT22;1020;48.854;8.830;2022-07-25T00:33:41;20.60;1.00
2030;DHT22;1020;48.854;8.830;2022-07-25T00:36:09;20.70;1.00
2030;DHT22;1020;48.854;8.830;2022-07-25T00:38:35;20.70;1.00
2030;DHT22;1020;48.854;8.830;2022-07-25T00:41:03;20.70;1.00
2030;DHT22;1020;48.854;8.830;2022-07-25T00:43:30;20.80;1.00
2030;DHT22;1020;48.854;8.830;2022-07-25T00:45:58;20.90;1.00
2030;DHT22;1020;48.854;8.830;2022-07-25T00:48:25;21.00;1.00
2030;DHT22;1020;48.854;8.830;2022-07-25T00:50:52;21.00;1.00
2030;DHT22;1020;48.854;8.830;2022-07-25T00:53:19;21.00;1.00
2030;DHT22;1020;48.854;8.830;2022-07-25T00:55:46;21.00;1.00
2030;DHT22;1020;48.854;8.830;2022-07-25T00:58:13;21.00;1.00
2030;DHT22;1020;48.854;8.830;2022-07-25T01:00:40;21.00;1.00
2030;DHT22;1020;48.854;8.830;2022-07-25T01:03:08;21.10;1.00
2030;DHT22;1020;48.854;8.830;2022-07-25T01:05:36;21.10;1.00
2030;DHT22;1020;48.854;8.830;2022-07-25T01:08:03;21.10;1.00
2030;DHT22;1020;48.854;8.830;2022-07-25T01:10:30;21.10;1.00
2030;DHT22;1020;48.854;8.830;2022-07-25T01:12:57;21.10;1.00
2030;DHT22;1020;48.854;8.830;2022-07-25T01:15:24;21.10;1.00
2030;DHT22;1020;48.854;8.830;2022-07-25T01:17:51;21.10;1.00
2030;DHT22;1020;48.854;8.830;2022-07-25T01:20:20;21.10;1.00
2030;DHT22;1020;48.854;8.830;2022-07-25T01:22:47;21.10;1.00
2030;DHT22;1020;48.854;8.830;2022-07-25T01:25:15;21.20;1.00
2030;DHT22;1020;48.854;8.830;2022-07-25T01:27:42;21.20;1.00
2030;DHT22;1020;48.854;8.830;2022-07-25T01:30:12;21.10;1.00
2030;DHT22;1020;48.854;8.830;2022-07-25T01:32:39;21.10;1.00
2030;DHT22;1020;48.854;8.830;2022-07-25T01:35:07;21.10;1.00
2030;DHT22;1020;48.854;8.830;2022-07-25T01:37:36;21.20;1.00
2030;DHT22;1020;48.854;8.830;2022-07-25T01:40:03;21.20;1.00
2030;DHT22;1020;48.854;8.830;2022-07-25T01:42:31;21.10;1.00
2030;DHT22;1020;48.854;8.830;2022-07-25T01:44:58;21.10;1.00
2030;DHT22;1020;48.854;8.830;2022-07-25T01:47:25;21.20;1.00
2030;DHT22;1020;48.854;8.830;2022-07-25T01:49:51;21.20;1.00
2030;DHT22;1020;48.854;8.830;2022-07-25T01:52:18;21.20;1.00
2030;DHT22;1020;48.854;8.830;2022-07-25T01:54:46;21.20;1.00
2030;DHT22;1020;48.854;8.830;2022-07-25T01:57:13;21.10;1.00
2030;DHT22;1020;48.854;8.830;2022-07-25T01:59:40;21.10;1.00
2030;DHT22;1020;48.854;8.830;2022-07-25T02:02:07;21.10;1.00
2030;DHT22;1020;48.854;8.830;2022-07-25T02:04:35;21.00;1.00
2030;DHT22;1020;48.854;8.830;2022-07-25T02:07:02;21.10;1.00
2030;DHT22;1020;48.854;8.830;2022-07-25T02:09:29;21.00;1.00
2030;DHT22;1020;48.854;8.830;2022-07-25T02:11:57;21.00;1.00
2030;DHT22;1020;48.854;8.830;2022-07-25T02:14:24;21.00;1.00
2030;DHT22;1020;48.854;8.830;2022-07-25T02:16:51;21.00;1.00
2030;DHT22;1020;48.854;8.830;2022-07-25T02:19:18;21.00;1.00
2030;DHT22;1020;48.854;8.830;2022-07-25T02:21:45;21.10;1.00
2030;DHT22;1020;48.854;8.830;2022-07-25T02:24:11;21.00;1.00
2030;DHT22;1020;48.854;8.830;2022-07-25T02:26:38;20.80;1.00
2030;DHT22;1020;48.854;8.830;2022-07-25T02:29:06;20.90;1.00
2030;DHT22;1020;48.854;8.830;2022-07-25T02:31:33;20.80;1.00
2030;DHT22;1020;48.854;8.830;2022-07-25T02:33:59;20.80;1.00
2030;DHT22;1020;48.854;8.830;2022-07-25T02:36:26;20.90;1.00
2030;DHT22;1020;48.854;8.830;2022-07-25T02:38:53;20.90;1.00
2030;DHT22;1020;48.854;8.830;2022-07-25T02:41:20;20.90;1.00
2030;DHT22;1020;48.854;8.830;2022-07-25T02:43:46;20.90;1.00
2030;DHT22;1020;48.854;8.830;2022-07-25T02:46:15;20.80;1.00
2030;DHT22;1020;48.854;8.830;2022-07-25T02:48:41;20.70;1.00
2030;DHT22;1020;48.854;8.830;2022-07-25T02:51:08;20.70;1.00
2030;DHT22;1020;48.854;8.830;2022-07-25T02:53:35;20.70;1.00
2030;DHT22;1020;48.854;8.830;2022-07-25T02:56:02;20.70;1.00
2030;DHT22;1020;48.854;8.830;2022-07-25T02:58:28;20.70;1.00
2030;DHT22;1020;48.854;8.830;2022-07-25T03:00:55;20.70;1.00
2030;DHT22;1020;48.854;8.830;2022-07-25T03:03:24;20.70;1.00
2030;DHT22;1020;48.854;8.830;2022-07-25T03:05:51;20.70;1.00
2030;DHT22;1020;48.854;8.830;2022-07-25T03:08:17;20.70;1.00
2030;DHT22;1020;48.854;8.830;2022-07-25T03:10:44;20.70;1.00
2030;DHT22;1020;48.854;8.830;2022-07-25T03:13:11;20.60;1.00
2030;DHT22;1020;48.854;8.830;2022-07-25T03:15:37;20.50;1.00
2030;DHT22;1020;48.854;8.830;2022-07-25T03:18:04;20.30;1.00
2030;DHT22;1020;48.854;8.830;2022-07-25T03:20:32;20.20;1.00
2030;DHT22;1020;48.854;8.830;2022-07-25T03:22:59;20.10;1.00
2030;DHT22;1020;48.854;8.830;2022-07-25T03:25:26;20.00;1.00
2030;DHT22;1020;48.854;8.830;2022-07-25T03:27:53;19.90;1.00
2030;DHT22;1020;48.854;8.830;2022-07-25T03:30:20;19.80;47.90
2030;DHT22;1020;48.854;8.830;2022-07-25T03:32:47;19.70;99.90
2030;DHT22;1020;48.854;8.830;2022-07-25T03:35:14;19.80;99.90
2030;DHT22;1020;48.854;8.830;2022-07-25T03:37:42;19.80;77.50
2030;DHT22;1020;48.854;8.830;2022-07-25T03:40:11;19.80;90.90
2030;DHT22;1020;48.854;8.830;2022-07-25T03:42:38;19.80;93.70
2030;DHT22;1020;48.854;8.830;2022-07-25T03:45:06;19.80;94.50
2030;DHT22;1020;48.854;8.830;2022-07-25T03:47:33;19.80;99.40
2030;DHT22;1020;48.854;8.830;2022-07-25T03:50:00;19.80;90.90
2030;DHT22;1020;48.854;8.830;2022-07-25T03:52:27;19.70;97.50
2030;DHT22;1020;48.854;8.830;2022-07-25T03:54:55;19.70;99.90
2030;DHT22;1020;48.854;8.830;2022-07-25T03:57:21;19.80;98.60
2030;DHT22;1020;48.854;8.830;2022-07-25T03:59:48;19.90;74.00
2030;DHT22;1020;48.854;8.830;2022-07-25T04:02:15;19.90;37.10
2030;DHT22;1020;48.854;8.830;2022-07-25T04:04:42;20.00;1.00
2030;DHT22;1020;48.854;8.830;2022-07-25T04:07:08;20.10;1.00
2030;DHT22;1020;48.854;8.830;2022-07-25T04:09:35;20.10;1.00
2030;DHT22;1020;48.854;8.830;2022-07-25T04:12:04;20.20;1.00
2030;DHT22;1020;48.854;8.830;2022-07-25T04:14:31;20.30;1.00
2030;DHT22;1020;48.854;8.830;2022-07-25T04:16:58;20.40;1.00
2030;DHT22;1020;48.854;8.830;2022-07-25T04:19:25;20.60;1.00
2030;DHT22;1020;48.854;8.830;2022-07-25T04:21:52;20.60;1.00
2030;DHT22;1020;48.854;8.830;2022-07-25T04:24:19;20.80;1.00
2030;DHT22;1020;48.854;8.830;2022-07-25T04:26:45;20.90;1.00
2030;DHT22;1020;48.854;8.830;2022-07-25T04:29:13;20.90;1.00
2030;DHT22;1020;48.854;8.830;2022-07-25T04:31:40;20.90;1.00
2030;DHT22;1020;48.854;8.830;2022-07-25T04:34:07;21.00;1.00
2030;DHT22;1020;48.854;8.830;2022-07-25T04:36:34;21.00;1.00
2030;DHT22;1020;48.854;8.830;2022-07-25T04:39:00;21.10;1.00
2030;DHT22;1020;48.854;8.830;2022-07-25T04:41:27;21.20;1.00
2030;DHT22;1020;48.854;8.830;2022-07-25T04:43:54;21.20;1.00
2030;DHT22;1020;48.854;8.830;2022-07-25T04:46:22;21.20;1.00
2030;DHT22;1020;48.854;8.830;2022-07-25T04:48:49;21.40;1.00
2030;DHT22;1020;48.854;8.830;2022-07-25T04:51:16;21.40;1.00
2030;DHT22;1020;48.854;8.830;2022-07-25T04:53:44;21.50;1.00
2030;DHT22;1020;48.854;8.830;2022-07-25T04:56:11;21.60;1.00
2030;DHT22;1020;48.854;8.830;2022-07-25T04:58:38;21.60;1.00
2030;DHT22;1020;48.854;8.830;2022-07-25T05:01:05;21.60;1.00
2030;DHT22;1020;48.854;8.830;2022-07-25T05:03:33;21.70;1.00
2030;DHT22;1020;48.854;8.830;2022-07-25T05:06:00;21.80;1.00
2030;DHT22;1020;48.854;8.830;2022-07-25T05:08:27;21.90;1.00
2030;DHT22;1020;48.854;8.830;2022-07-25T05:10:54;21.90;1.00
2030;DHT22;1020;48.854;8.830;2022-07-25T05:13:20;22.10;1.00
2030;DHT22;1020;48.854;8.830;2022-07-25T05:15:47;22.20;1.00
2030;DHT22;1020;48.854;8.830;2022-07-25T05:18:14;22.30;1.00
2030;DHT22;1020;48.854;8.830;2022-07-25T05:20:42;22.40;1.00
2030;DHT22;1020;48.854;8.830;2022-07-25T05:23:09;22.50;1.00
2030;DHT22;1020;48.854;8.830;2022-07-25T05:25:35;22.50;1.00
2030;DHT22;1020;48.854;8.830;2022-07-25T05:28:02;22.60;1.00
2030;DHT22;1020;48.854;8.830;2022-07-25T05:30:29;22.70;1.00
2030;DHT22;1020;48.854;8.830;2022-07-25T05:32:56;22.80;1.00
2030;DHT22;1020;48.854;8.830;2022-07-25T05:35:22;22.90;99.90
2030;DHT22;1020;48.854;8.830;2022-07-25T05:37:50;22.90;99.90
2030;DHT22;1020;48.854;8.830;2022-07-25T05:40:17;22.90;99.90
2030;DHT22;1020;48.854;8.830;2022-07-25T05:42:44;22.90;99.90
2030;DHT22;1020;48.854;8.830;2022-07-25T05:45:11;23.00;99.90
2030;DHT22;1020;48.854;8.830;2022-07-25T05:47:38;23.00;99.90
2030;DHT22;1020;48.854;8.830;2022-07-25T05:50:06;23.10;99.90
2030;DHT22;1020;48.854;8.830;2022-07-25T05:52:33;23.20;99.90
2030;DHT22;1020;48.854;8.830;2022-07-25T05:55:01;23.20;99.90
2030;DHT22;1020;48.854;8.830;2022-07-25T05:57:28;23.30;99.90
2030;DHT22;1020;48.854;8.830;2022-07-25T05:59:54;23.50;99.90
2030;DHT22;1020;48.854;8.830;2022-07-25T06:02:22;23.50;99.90
2030;DHT22;1020;48.854;8.830;2022-07-25T06:04:49;23.70;99.90
2030;DHT22;1020;48.854;8.830;2022-07-25T06:07:15;23.80;99.90
2030;DHT22;1020;48.854;8.830;2022-07-25T06:09:42;23.90;99.90
2030;DHT22;1020;48.854;8.830;2022-07-25T06:12:10;24.00;99.90
2030;DHT22;1020;48.854;8.830;2022-07-25T06:14:38;24.00;99.90
2030;DHT22;1020;48.854;8.830;2022-07-25T06:17:05;24.10;99.90
2030;DHT22;1020;48.854;8.830;2022-07-25T06:19:31;24.10;99.90
2030;DHT22;1020;48.854;8.830;2022-07-25T06:21:58;24.20;99.90
2030;DHT22;1020;48.854;8.830;2022-07-25T06:24:25;24.30;99.90
2030;DHT22;1020;48.854;8.830;2022-07-25T06:26:52;24.50;99.90
2030;DHT22;1020;48.854;8.830;2022-07-25T06:29:20;24.70;99.90
2030;DHT22;1020;48.854;8.830;2022-07-25T06:31:46;24.70;99.90
2030;DHT22;1020;48.854;8.830;2022-07-25T06:34:13;24.90;99.90
2030;DHT22;1020;48.854;8.830;2022-07-25T06:36:40;24.90;99.90
2030;DHT22;1020;48.854;8.830;2022-07-25T06:39:07;25.10;99.90
2030;DHT22;1020;48.854;8.830;2022-07-25T06:41:34;25.10;99.90
2030;DHT22;1020;48.854;8.830;2022-07-25T06:44:02;25.30;99.90
2030;DHT22;1020;48.854;8.830;2022-07-25T06:46:30;25.30;99.90
2030;DHT22;1020;48.854;8.830;2022-07-25T06:48:57;25.50;99.90
2030;DHT22;1020;48.854;8.830;2022-07-25T06:51:24;25.70;99.90
2030;DHT22;1020;48.854;8.830;2022-07-25T06:53:51;25.90;99.90
2030;DHT22;1020;48.854;8.830;2022-07-25T06:56:18;26.00;99.90
2030;DHT22;1020;48.854;8.830;2022-07-25T06:58:45;26.30;99.90
2030;DHT22;1020;48.854;8.830;2022-07-25T07:01:12;24.90;99.90
2030;DHT22;1020;48.854;8.830;2022-07-25T07:03:40;26.40;99.90
2030;DHT22;1020;48.854;8.830;2022-07-25T07:06:07;26.60;99.90
2030;DHT22;1020;48.854;8.830;2022-07-25T07:08:35;26.80;99.90
2030;DHT22;1020;48.854;8.830;2022-07-25T07:11:02;27.00;99.90
2030;DHT22;1020;48.854;8.830;2022-07-25T07:13:29;27.20;99.90
2030;DHT22;1020;48.854;8.830;2022-07-25T07:15:56;27.40;99.90
2030;DHT22;1020;48.854;8.830;2022-07-25T07:18:23;27.70;99.90
2030;DHT22;1020;48.854;8.830;2022-07-25T07:20:52;28.00;99.90
2030;DHT22;1020;48.854;8.830;2022-07-25T07:23:19;28.00;99.90
2030;DHT22;1020;48.854;8.830;2022-07-25T07:25:46;28.40;99.90
2030;DHT22;1020;48.854;8.830;2022-07-25T07:28:13;28.60;99.90
2030;DHT22;1020;48.854;8.830;2022-07-25T07:30:40;29.10;99.90
2030;DHT22;1020;48.854;8.830;2022-07-25T07:33:07;29.60;99.90
2030;DHT22;1020;48.854;8.830;2022-07-25T07:35:34;30.20;99.90
2030;DHT22;1020;48.854;8.830;2022-07-25T07:38:02;30.70;99.90
2030;DHT22;1020;48.854;8.830;2022-07-25T07:40:29;31.40;99.90
2030;DHT22;1020;48.854;8.830;2022-07-25T07:42:56;31.50;99.90
2030;DHT22;1020;48.854;8.830;2022-07-25T07:45:25;32.20;99.90
2030;DHT22;1020;48.854;8.830;2022-07-25T07:47:53;33.80;99.90
2030;DHT22;1020;48.854;8.830;2022-07-25T07:50:24;33.70;99.90
2030;DHT22;1020;48.854;8.830;2022-07-25T07:52:52;33.80;99.90
2030;DHT22;1020;48.854;8.830;2022-07-25T07:55:21;35.00;99.90
2030;DHT22;1020;48.854;8.830;2022-07-25T07:58:06;36.10;99.90
2030;DHT22;1020;48.854;8.830;2022-07-25T08:00:33;37.10;99.90
2030;DHT22;1020;48.854;8.830;2022-07-25T08:03:01;38.20;99.90
2030;DHT22;1020;48.854;8.830;2022-07-25T08:05:30;38.50;99.90
2030;DHT22;1020;48.854;8.830;2022-07-25T08:07:58;38.00;99.90
2030;DHT22;1020;48.854;8.830;2022-07-25T08:10:27;37.60;99.90
2030;DHT22;1020;48.854;8.830;2022-07-25T08:12:55;38.20;99.90
2030;DHT22;1020;48.854;8.830;2022-07-25T08:15:22;39.10;99.90
2030;DHT22;1020;48.854;8.830;2022-07-25T08:17:50;39.70;99.90
2030;DHT22;1020;48.854;8.830;2022-07-25T08:20:18;39.80;99.90
2030;DHT22;1020;48.854;8.830;2022-07-25T08:22:46;39.90;99.90
2030;DHT22;1020;48.854;8.830;2022-07-25T08:25:15;39.60;99.90
2030;DHT22;1020;48.854;8.830;2022-07-25T08:27:44;38.80;99.90
2030;DHT22;1020;48.854;8.830;2022-07-25T08:30:12;38.00;99.90
2030;DHT22;1020;48.854;8.830;2022-07-25T08:32:45;38.30;99.90
2030;DHT22;1020;48.854;8.830;2022-07-25T08:35:12;38.50;99.90
2030;DHT22;1020;48.854;8.830;2022-07-25T08:37:40;36.60;99.90
2030;DHT22;1020;48.854;8.830;2022-07-25T08:40:08;36.60;99.90
2030;DHT22;1020;48.854;8.830;2022-07-25T08:42:36;37.10;99.90
2030;DHT22;1020;48.854;8.830;2022-07-25T08:45:06;36.90;99.90
2030;DHT22;1020;48.854;8.830;2022-07-25T08:47:34;36.20;99.90
2030;DHT22;1020;48.854;8.830;2022-07-25T08:50:02;36.10;99.90
2030;DHT22;1020;48.854;8.830;2022-07-25T08:52:30;35.90;99.90
2030;DHT22;1020;48.854;8.830;2022-07-25T08:54:59;36.40;99.90
2030;DHT22;1020;48.854;8.830;2022-07-25T08:57:26;36.00;99.90
2030;DHT22;1020;48.854;8.830;2022-07-25T08:59:56;35.60;99.90
2030;DHT22;1020;48.854;8.830;2022-07-25T09:02:25;36.00;99.90
2030;DHT22;1020;48.854;8.830;2022-07-25T09:04:52;35.90;99.90
2030;DHT22;1020;48.854;8.830;2022-07-25T09:07:29;35.80;99.90
2030;DHT22;1020;48.854;8.830;2022-07-25T09:09:56;37.20;99.90
2030;DHT22;1020;48.854;8.830;2022-07-25T09:12:24;38.30;99.90
2030;DHT22;1020;48.854;8.830;2022-07-25T09:14:51;37.80;99.90
2030;DHT22;1020;48.854;8.830;2022-07-25T09:17:18;37.10;99.90
2030;DHT22;1020;48.854;8.830;2022-07-25T09:19:52;36.70;99.90
2030;DHT22;1020;48.854;8.830;2022-07-25T09:22:19;37.60;99.90
2030;DHT22;1020;48.854;8.830;2022-07-25T09:24:46;37.90;99.90
2030;DHT22;1020;48.854;8.830;2022-07-25T09:27:13;37.40;99.90
2030;DHT22;1020;48.854;8.830;2022-07-25T09:29:42;37.00;99.90
2030;DHT22;1020;48.854;8.830;2022-07-25T09:32:14;37.10;99.90
2030;DHT22;1020;48.854;8.830;2022-07-25T09:34:43;37.30;99.90
2030;DHT22;1020;48.854;8.830;2022-07-25T09:37:13;37.80;99.90
2030;DHT22;1020;48.854;8.830;2022-07-25T09:39:42;38.30;99.90
2030;DHT22;1020;48.854;8.830;2022-07-25T09:42:23;37.80;99.90
2030;DHT22;1020;48.854;8.830;2022-07-25T09:45:08;38.50;99.90
2030;DHT22;1020;48.854;8.830;2022-07-25T09:47:37;38.00;99.90
2030;DHT22;1020;48.854;8.830;2022-07-25T09:50:06;37.10;99.90
2030;DHT22;1020;48.854;8.830;2022-07-25T09:52:34;37.10;99.90
2030;DHT22;1020;48.854;8.830;2022-07-25T09:55:03;37.80;99.90
2030;DHT22;1020;48.854;8.830;2022-07-25T09:57:30;38.90;99.90
2030;DHT22;1020;48.854;8.830;2022-07-25T09:59:58;39.60;99.90
2030;DHT22;1020;48.854;8.830;2022-07-25T10:02:49;40.40;99.90
2030;DHT22;1020;48.854;8.830;2022-07-25T10:05:23;39.30;99.90
2030;DHT22;1020;48.854;8.830;2022-07-25T10:07:54;37.90;99.90
2030;DHT22;1020;48.854;8.830;2022-07-25T10:10:26;38.70;99.90
2030;DHT22;1020;48.854;8.830;2022-07-25T10:13:01;39.50;99.90
2030;DHT22;1020;48.854;8.830;2022-07-25T10:15:45;40.00;99.90
2030;DHT22;1020;48.854;8.830;2022-07-25T10:18:13;40.40;99.90
2030;DHT22;1020;48.854;8.830;2022-07-25T10:20:40;40.10;99.90
2030;DHT22;1020;48.854;8.830;2022-07-25T10:23:23;39.70;99.90
2030;DHT22;1020;48.854;8.830;2022-07-25T10:26:02;39.00;99.90
2030;DHT22;1020;48.854;8.830;2022-07-25T10:28:37;38.90;99.90
2030;DHT22;1020;48.854;8.830;2022-07-25T10:31:14;38.50;99.90
2030;DHT22;1020;48.854;8.830;2022-07-25T10:33:41;38.30;99.90
2030;DHT22;1020;48.854;8.830;2022-07-25T10:36:09;38.70;99.90
2030;DHT22;1020;48.854;8.830;2022-07-25T10:38:39;39.60;99.90
2030;DHT22;1020;48.854;8.830;2022-07-25T10:41:06;40.00;99.90
2030;DHT22;1020;48.854;8.830;2022-07-25T10:43:36;40.00;99.90
2030;DHT22;1020;48.854;8.830;2022-07-25T10:46:10;40.00;99.90
2030;DHT22;1020;48.854;8.830;2022-07-25T10:48:37;40.80;99.90
2030;DHT22;1020;48.854;8.830;2022-07-25T10:51:06;41.10;99.90
2030;DHT22;1020;48.854;8.830;2022-07-25T10:53:35;40.70;99.90
2030;DHT22;1020;48.854;8.830;2022-07-25T10:56:06;39.70;99.90
2030;DHT22;1020;48.854;8.830;2022-07-25T10:58:48;38.90;99.90
2030;DHT22;1020;48.854;8.830;2022-07-25T11:01:19;38.60;99.90
2030;DHT22;1020;48.854;8.830;2022-07-25T11:03:46;39.60;99.90
2030;DHT22;1020;48.854;8.830;2022-07-25T11:06:14;40.00;99.90
2030;DHT22;1020;48.854;8.830;2022-07-25T11:08:42;40.50;99.90
2030;DHT22;1020;48.854;8.830;2022-07-25T11:11:11;39.60;99.90
2030;DHT22;1020;48.854;8.830;2022-07-25T11:13:39;39.10;99.90
2030;DHT22;1020;48.854;8.830;2022-07-25T11:16:07;39.20;99.90
2030;DHT22;1020;48.854;8.830;2022-07-25T11:18:37;39.10;99.90
2030;DHT22;1020;48.854;8.830;2022-07-25T11:21:06;39.50;99.90
2030;DHT22;1020;48.854;8.830;2022-07-25T11:23:34;39.30;99.90
2030;DHT22;1020;48.854;8.830;2022-07-25T11:26:08;38.90;99.90
2030;DHT22;1020;48.854;8.830;2022-07-25T11:28:41;38.70;99.90
2030;DHT22;1020;48.854;8.830;2022-07-25T11:31:08;39.00;99.90
2030;DHT22;1020;48.854;8.830;2022-07-25T11:33:36;38.30;99.90
2030;DHT22;1020;48.854;8.830;2022-07-25T11:36:04;37.00;99.90
2030;DHT22;1020;48.854;8.830;2022-07-25T11:38:31;36.50;99.90
2030;DHT22;1020;48.854;8.830;2022-07-25T11:40:58;36.60;99.90
2030;DHT22;1020;48.854;8.830;2022-07-25T11:43:25;37.00;99.90
2030;DHT22;1020;48.854;8.830;2022-07-25T11:45:59;36.50;99.90
2030;DHT22;1020;48.854;8.830;2022-07-25T11:48:33;36.40;99.90
2030;DHT22;1020;48.854;8.830;2022-07-25T11:51:12;36.40;99.90
2030;DHT22;1020;48.854;8.830;2022-07-25T11:53:41;36.50;99.90
2030;DHT22;1020;48.854;8.830;2022-07-25T11:56:12;36.00;99.90
2030;DHT22;1020;48.854;8.830;2022-07-25T11:58:40;35.50;99.90
2030;DHT22;1020;48.854;8.830;2022-07-25T12:01:14;35.40;99.90
2030;DHT22;1020;48.854;8.830;2022-07-25T12:03:41;35.40;99.90
2030;DHT22;1020;48.854;8.830;2022-07-25T12:06:10;35.50;99.90
2030;DHT22;1020;48.854;8.830;2022-07-25T12:08:39;35.50;99.90
2030;DHT22;1020;48.854;8.830;2022-07-25T12:11:18;35.70;99.90
2030;DHT22;1020;48.854;8.830;2022-07-25T12:13:45;35.90;99.90
2030;DHT22;1020;48.854;8.830;2022-07-25T12:16:14;36.20;99.90
2030;DHT22;1020;48.854;8.830;2022-07-25T12:18:41;35.80;99.90
2030;DHT22;1020;48.854;8.830;2022-07-25T12:21:08;35.60;99.90
2030;DHT22;1020;48.854;8.830;2022-07-25T12:23:34;35.30;99.90
2030;DHT22;1020;48.854;8.830;2022-07-25T12:26:03;35.20;99.90
2030;DHT22;1020;48.854;8.830;2022-07-25T12:28:30;35.00;99.90
2030;DHT22;1020;48.854;8.830;2022-07-25T12:30:57;35.10;99.90
2030;DHT22;1020;48.854;8.830;2022-07-25T12:33:25;35.80;99.90
2030;DHT22;1020;48.854;8.830;2022-07-25T12:35:51;36.40;99.90
2030;DHT22;1020;48.854;8.830;2022-07-25T12:38:18;36.90;99.90
2030;DHT22;1020;48.854;8.830;2022-07-25T12:40:45;37.00;99.90
2030;DHT22;1020;48.854;8.830;2022-07-25T12:43:12;37.10;99.90
2030;DHT22;1020;48.854;8.830;2022-07-25T12:45:39;35.80;99.90
2030;DHT22;1020;48.854;8.830;2022-07-25T12:48:07;36.00;99.90
2030;DHT22;1020;48.854;8.830;2022-07-25T12:50:35;36.10;99.90
2030;DHT22;1020;48.854;8.830;2022-07-25T12:53:02;36.00;99.90
2030;DHT22;1020;48.854;8.830;2022-07-25T12:55:29;36.20;99.90
2030;DHT22;1020;48.854;8.830;2022-07-25T12:57:56;36.50;99.90
2030;DHT22;1020;48.854;8.830;2022-07-25T13:00:22;36.50;99.90
2030;DHT22;1020;48.854;8.830;2022-07-25T13:02:50;36.70;99.90
2030;DHT22;1020;48.854;8.830;2022-07-25T13:05:20;36.60;99.90
2030;DHT22;1020;48.854;8.830;2022-07-25T13:07:48;36.60;99.90
2030;DHT22;1020;48.854;8.830;2022-07-25T13:10:16;36.40;99.90
2030;DHT22;1020;48.854;8.830;2022-07-25T13:12:43;35.70;99.90
2030;DHT22;1020;48.854;8.830;2022-07-25T13:15:10;35.00;99.90
2030;DHT22;1020;48.854;8.830;2022-07-25T13:17:37;34.50;99.90
2030;DHT22;1020;48.854;8.830;2022-07-25T13:20:05;34.20;99.90
2030;DHT22;1020;48.854;8.830;2022-07-25T13:22:32;35.30;99.90
2030;DHT22;1020;48.854;8.830;2022-07-25T13:25:00;34.30;99.90
2030;DHT22;1020;48.854;8.830;2022-07-25T13:27:28;34.50;99.90
2030;DHT22;1020;48.854;8.830;2022-07-25T13:29:54;34.50;99.90
2030;DHT22;1020;48.854;8.830;2022-07-25T13:32:22;34.30;99.90
2030;DHT22;1020;48.854;8.830;2022-07-25T13:34:50;34.30;99.90
2030;DHT22;1020;48.854;8.830;2022-07-25T13:37:17;34.10;99.90
2030;DHT22;1020;48.854;8.830;2022-07-25T13:39:44;33.80;99.90
2030;DHT22;1020;48.854;8.830;2022-07-25T13:42:12;33.60;99.90
2030;DHT22;1020;48.854;8.830;2022-07-25T13:44:39;33.30;99.90
2030;DHT22;1020;48.854;8.830;2022-07-25T13:47:06;33.00;99.90
2030;DHT22;1020;48.854;8.830;2022-07-25T13:49:32;32.80;99.90
2030;DHT22;1020;48.854;8.830;2022-07-25T13:52:01;32.60;99.90
2030;DHT22;1020;48.854;8.830;2022-07-25T13:54:28;32.50;99.90
2030;DHT22;1020;48.854;8.830;2022-07-25T13:56:54;32.40;99.90
2030;DHT22;1020;48.854;8.830;2022-07-25T13:59:22;32.70;99.90
2030;DHT22;1020;48.854;8.830;2022-07-25T14:01:49;33.10;99.90
2030;DHT22;1020;48.854;8.830;2022-07-25T14:04:16;33.20;99.90
2030;DHT22;1020;48.854;8.830;2022-07-25T14:06:43;33.50;99.90
2030;DHT22;1020;48.854;8.830;2022-07-25T14:09:10;33.40;99.90
2030;DHT22;1020;48.854;8.830;2022-07-25T14:11:37;33.30;99.90
2030;DHT22;1020;48.854;8.830;2022-07-25T14:14:03;33.60;99.90
2030;DHT22;1020;48.854;8.830;2022-07-25T14:16:32;33.90;99.90
2030;DHT22;1020;48.854;8.830;2022-07-25T14:18:59;33.90;99.90
2030;DHT22;1020;48.854;8.830;2022-07-25T14:21:26;33.70;99.90
2030;DHT22;1020;48.854;8.830;2022-07-25T14:23:53;33.50;99.90
2030;DHT22;1020;48.854;8.830;2022-07-25T14:26:20;33.30;99.90
2030;DHT22;1020;48.854;8.830;2022-07-25T14:28:47;33.30;99.90
2030;DHT22;1020;48.854;8.830;2022-07-25T14:31:13;33.50;99.90
2030;DHT22;1020;48.854;8.830;2022-07-25T14:33:41;33.20;99.90
2030;DHT22;1020;48.854;8.830;2022-07-25T14:36:09;33.30;99.90
2030;DHT22;1020;48.854;8.830;2022-07-25T14:38:35;33.50;99.90
2030;DHT22;1020;48.854;8.830;2022-07-25T14:41:02;33.30;99.90
2030;DHT22;1020;48.854;8.830;2022-07-25T14:43:29;33.20;99.90
2030;DHT22;1020;48.854;8.830;2022-07-25T14:45:56;33.20;99.90
2030;DHT22;1020;48.854;8.830;2022-07-25T14:48:23;33.10;99.90
2030;DHT22;1020;48.854;8.830;2022-07-25T14:50:51;32.90;99.90
2030;DHT22;1020;48.854;8.830;2022-07-25T14:53:17;32.70;99.90
2030;DHT22;1020;48.854;8.830;2022-07-25T14:55:44;32.70;99.90
2030;DHT22;1020;48.854;8.830;2022-07-25T14:58:11;32.00;99.90
2030;DHT22;1020;48.854;8.830;2022-07-25T15:00:40;31.10;99.90
2030;DHT22;1020;48.854;8.830;2022-07-25T15:03:07;30.80;99.90
2030;DHT22;1020;48.854;8.830;2022-07-25T15:05:34;30.50;99.90
2030;DHT22;1020;48.854;8.830;2022-07-25T15:08:05;30.20;99.90
2030;DHT22;1020;48.854;8.830;2022-07-25T15:10:32;30.00;99.90
2030;DHT22;1020;48.854;8.830;2022-07-25T15:12:59;30.00;99.90
2030;DHT22;1020;48.854;8.830;2022-07-25T15:15:26;30.00;99.90
2030;DHT22;1020;48.854;8.830;2022-07-25T15:17:52;30.20;99.90
2030;DHT22;1020;48.854;8.830;2022-07-25T15:20:20;30.30;99.90
2030;DHT22;1020;48.854;8.830;2022-07-25T15:22:47;30.70;99.90
2030;DHT22;1020;48.854;8.830;2022-07-25T15:25:15;31.10;99.90
2030;DHT22;1020;48.854;8.830;2022-07-25T15:27:42;31.40;99.90
2030;DHT22;1020;48.854;8.830;2022-07-25T15:30:09;31.60;99.90
2030;DHT22;1020;48.854;8.830;2022-07-25T15:32:36;31.70;99.90
2030;DHT22;1020;48.854;8.830;2022-07-25T15:35:05;31.70;99.90
2030;DHT22;1020;48.854;8.830;2022-07-25T15:37:32;31.80;99.90
2030;DHT22;1020;48.854;8.830;2022-07-25T15:39:59;31.80;99.90
2030;DHT22;1020;48.854;8.830;2022-07-25T15:42:27;32.00;99.90
2030;DHT22;1020;48.854;8.830;2022-07-25T15:44:54;32.30;99.90
2030;DHT22;1020;48.854;8.830;2022-07-25T15:47:21;32.00;99.90
2030;DHT22;1020;48.854;8.830;2022-07-25T15:49:48;31.90;99.90
2030;DHT22;1020;48.854;8.830;2022-07-25T15:52:14;32.30;99.90
2030;DHT22;1020;48.854;8.830;2022-07-25T15:54:42;32.20;99.90
2030;DHT22;1020;48.854;8.830;2022-07-25T15:57:09;32.20;99.90
2030;DHT22;1020;48.854;8.830;2022-07-25T15:59:37;32.10;99.90
2030;DHT22;1020;48.854;8.830;2022-07-25T16:02:04;32.00;99.90
2030;DHT22;1020;48.854;8.830;2022-07-25T16:04:34;31.90;99.90
2030;DHT22;1020;48.854;8.830;2022-07-25T16:07:01;31.90;99.90
2030;DHT22;1020;48.854;8.830;2022-07-25T16:09:28;31.90;99.90
2030;DHT22;1020;48.854;8.830;2022-07-25T16:11:54;32.00;99.90